createdAt,value
2022-10-17T00:00:24.674Z,100631.94
2022-10-17T00:05:21.036Z,100637.16
2022-10-17T00:10:17.536Z,100633.09
2022-10-17T00:15:19.428Z,100642.53
2022-10-17T00:20:15.990Z,100649.13
2022-10-17T00:25:12.616Z,100654.94
2022-10-17T00:30:13.122Z,100654.38
2022-10-17T00:35:09.988Z,100649.13
2022-10-17T00:40:07.211Z,100650.44
2022-10-17T00:45:13.533Z,100643.66
2022-10-17T00:50:11.804Z,100640.69
2022-10-17T00:55:18.504Z,100640.25
2022-10-17T01:00:16.770Z,100642.13
2022-10-17T01:05:14.054Z,100650.16
2022-10-17T01:10:11.317Z,100641.38
2022-10-17T01:15:21.381Z,100652.66
2022-10-17T01:20:32.902Z,100651.53
2022-10-17T01:25:44.976Z,100641.94
2022-10-17T01:30:59.434Z,100643.44
2022-10-17T01:36:07.213Z,100638.53
2022-10-17T01:41:11.094Z,100634.31
2022-10-17T01:46:18.447Z,100636.16
2022-10-17T01:51:26.499Z,100635.03
2022-10-17T01:56:25.293Z,100618.28
2022-10-17T02:01:22.973Z,100611.50
2022-10-17T02:06:19.524Z,100615.19
2022-10-17T02:11:26.262Z,100601.09
2022-10-17T02:16:40.561Z,100604.50
2022-10-17T02:21:51.964Z,100592.78
2022-10-17T02:26:53.605Z,100606.72
2022-10-17T02:31:56.072Z,100595.75
2022-10-17T02:36:56.160Z,100598.13
2022-10-17T02:41:54.997Z,100596.47
2022-10-17T02:47:26.798Z,100586.19
2022-10-17T02:52:48.143Z,100586.47
2022-10-17T02:57:50.359Z,100575.91
2022-10-17T03:02:51.617Z,100589.84
2022-10-17T03:07:48.244Z,100590.00
2022-10-17T03:12:44.642Z,100579.19
2022-10-17T03:17:41.169Z,100583.66
2022-10-17T03:22:37.644Z,100578.63
2022-10-17T03:27:34.074Z,100585.34
2022-10-17T03:32:33.678Z,100588.72
2022-10-17T03:37:30.336Z,100589.84
2022-10-17T03:42:26.923Z,100592.38
2022-10-17T03:47:23.323Z,100592.38
2022-10-17T03:52:19.914Z,100596.56
2022-10-17T03:57:16.561Z,100594.59
2022-10-17T04:02:12.973Z,100596.31
2022-10-17T04:07:09.393Z,100593.88
2022-10-17T04:12:05.825Z,100604.84
2022-10-17T04:17:02.234Z,100583.00
2022-10-17T04:21:58.660Z,100590.91
2022-10-17T04:26:55.565Z,100592.31
2022-10-17T04:31:52.354Z,100599.94
2022-10-17T04:36:48.813Z,100603.88
2022-10-17T04:41:45.468Z,100607.41
2022-10-17T04:46:41.947Z,100609.53
2022-10-17T04:51:38.646Z,100612.59
2022-10-17T04:56:35.108Z,100612.19
2022-10-17T05:01:31.482Z,100612.03
2022-10-17T05:06:28.309Z,100608.66
2022-10-17T05:11:27.657Z,100605.13
2022-10-17T05:16:25.279Z,100610.38
2022-10-17T05:21:24.355Z,100601.38
2022-10-17T05:26:21.818Z,100609.41
2022-10-17T05:31:18.849Z,100600.13
2022-10-17T05:36:16.177Z,100598.84
2022-10-17T05:41:12.571Z,100605.22
2022-10-17T05:46:09.754Z,100596.34
2022-10-17T05:51:09.229Z,100594.06
2022-10-17T05:56:08.045Z,100601.56
2022-10-17T06:01:08.220Z,100587.63
2022-10-17T06:06:12.046Z,100607.38
2022-10-17T06:11:10.262Z,100603.56
2022-10-17T06:16:07.661Z,100619.75
2022-10-17T06:21:10.034Z,100623.44
2022-10-17T06:26:07.572Z,100624.84
2022-10-17T06:31:06.213Z,100641.50
2022-10-17T06:36:03.894Z,100643.88
2022-10-17T06:41:13.709Z,100648.41
2022-10-17T06:46:10.105Z,100665.22
2022-10-17T06:51:07.304Z,100666.59
2022-10-17T06:56:05.588Z,100658.69
2022-10-17T07:01:04.736Z,100664.44
2022-10-17T07:06:01.309Z,100661.41
2022-10-17T07:10:57.915Z,100666.34
2022-10-17T07:20:55.194Z,100643.41
2022-10-17T07:25:51.613Z,100655.09
2022-10-17T07:30:51.979Z,100643.75
2022-10-17T07:35:52.794Z,100649.31
2022-10-17T07:40:57.712Z,100641.88
2022-10-17T07:45:54.569Z,100634.63
2022-10-17T07:50:51.277Z,100636.31
2022-10-17T07:55:49.482Z,100640.53
2022-10-17T08:00:48.430Z,100640.28
2022-10-17T08:05:45.080Z,100639.94
2022-10-17T08:10:41.587Z,100623.06
2022-10-17T08:15:39.053Z,100619.06
2022-10-17T08:20:35.441Z,100604.66
2022-10-17T08:25:31.966Z,100599.50
2022-10-17T08:30:30.689Z,100605.44
2022-10-17T08:35:27.137Z,100592.03
2022-10-17T08:40:29.190Z,100587.34
2022-10-17T08:45:56.274Z,100586.44
2022-10-17T08:50:57.940Z,100601.03
2022-10-17T08:55:55.213Z,100599.41
2022-10-17T09:01:03.850Z,100609.19
2022-10-17T09:06:19.134Z,100601.25
2022-10-17T09:11:34.106Z,100615.28
2022-10-17T09:16:56.806Z,100621.69
2022-10-17T09:22:25.166Z,100616.19
2022-10-17T09:27:35.502Z,100608.34
2022-10-17T09:32:32.377Z,100618.28
2022-10-17T09:37:32.679Z,100617.81
2022-10-17T09:42:29.307Z,100636.91
2022-10-17T09:47:39.145Z,100642.41
2022-10-17T09:52:42.262Z,100648.38
2022-10-17T09:57:54.984Z,100636.88
2022-10-17T10:02:51.590Z,100642.66
2022-10-17T10:08:03.454Z,100648.53
2022-10-17T10:13:06.917Z,100643.13
2022-10-17T10:18:12.430Z,100661.06
2022-10-17T10:23:15.926Z,100672.88
2022-10-17T10:28:12.427Z,100675.69
2022-10-17T10:33:11.543Z,100677.72
2022-10-17T10:38:17.446Z,100685.13
2022-10-17T10:43:24.437Z,100682.56
2022-10-17T10:48:37.500Z,100702.56
2022-10-17T10:53:45.595Z,100712.41
2022-10-17T10:59:06.457Z,100724.09
2022-10-17T11:04:41.626Z,100718.50
2022-10-17T11:09:49.076Z,100717.84
2022-10-17T11:14:56.753Z,100737.06
2022-10-17T11:20:37.757Z,100741.81
2022-10-17T11:25:36.812Z,100748.63
2022-10-17T11:30:46.181Z,100756.19
2022-10-17T11:35:46.075Z,100768.22
2022-10-17T11:40:48.556Z,100769.22
2022-10-17T11:45:50.505Z,100779.41
2022-10-17T11:56:29.711Z,100802.50
2022-10-17T12:01:38.094Z,100801.22
2022-10-17T12:07:01.102Z,100804.34
2022-10-17T12:11:59.754Z,100806.75
2022-10-17T12:16:56.154Z,100785.69
2022-10-17T12:22:01.504Z,100796.31
2022-10-17T12:26:58.274Z,100802.06
2022-10-17T12:31:54.690Z,100793.78
2022-10-17T12:36:51.129Z,100798.53
2022-10-17T12:41:47.460Z,100806.50
2022-10-17T12:46:50.875Z,100803.31
2022-10-17T12:52:10.966Z,100793.47
2022-10-17T12:57:35.976Z,100795.47
2022-10-17T13:02:33.365Z,100784.34
2022-10-17T13:07:30.128Z,100786.50
2022-10-17T13:12:28.311Z,100795.81
2022-10-17T13:17:28.241Z,100788.16
2022-10-17T13:22:27.597Z,100807.47
2022-10-17T13:27:34.907Z,100810.06
2022-10-17T13:32:39.710Z,100821.84
2022-10-17T13:37:37.013Z,100821.16
2022-10-17T13:42:41.198Z,100830.00
2022-10-17T13:47:39.410Z,100835.06
2022-10-17T13:52:36.162Z,100827.13
2022-10-17T13:57:32.962Z,100838.00
2022-10-17T14:02:31.714Z,100851.38
2022-10-17T14:08:05.853Z,100853.75
2022-10-17T14:12:55.761Z,100858.13
2022-10-17T14:18:00.267Z,100862.53
2022-10-17T14:28:18.313Z,100862.91
2022-10-17T14:33:26.215Z,100877.63
2022-10-17T14:38:23.540Z,100880.31
2022-10-17T14:43:23.719Z,100885.22
2022-10-17T14:48:23.249Z,100886.34
2022-10-17T14:53:22.667Z,100884.19
2022-10-17T14:58:27.652Z,100896.47
2022-10-17T15:03:24.799Z,100890.22
2022-10-17T15:08:23.752Z,100904.94
2022-10-17T15:13:29.073Z,100895.28
2022-10-17T15:18:26.753Z,100904.06
2022-10-17T15:23:23.114Z,100901.38
2022-10-17T15:28:19.500Z,100903.06
2022-10-17T15:33:15.828Z,100904.44
2022-10-17T15:38:17.820Z,100912.69
2022-10-17T15:43:17.435Z,100931.56
2022-10-17T15:48:23.096Z,100938.66
2022-10-17T15:53:19.556Z,100945.22
2022-10-17T15:58:17.122Z,100957.22
2022-10-17T16:03:14.271Z,100968.72
2022-10-17T16:08:10.693Z,100969.00
2022-10-17T16:13:19.697Z,100982.47
2022-10-17T16:18:16.157Z,100986.16
2022-10-17T16:23:13.609Z,100985.63
2022-10-17T16:28:11.910Z,100984.88
2022-10-17T16:33:10.309Z,100980.16
2022-10-17T16:38:07.927Z,100985.41
2022-10-17T16:43:04.281Z,100988.22
2022-10-17T16:48:00.625Z,100987.50
2022-10-17T16:52:56.960Z,101000.44
2022-10-17T16:57:53.329Z,101014.97
2022-10-17T17:02:49.706Z,101028.66
2022-10-17T17:07:47.851Z,101038.34
2022-10-17T17:12:44.316Z,101051.00
2022-10-17T17:17:56.301Z,101062.50
2022-10-17T17:22:53.286Z,101060.56
2022-10-17T17:27:49.637Z,101069.38
2022-10-17T17:32:46.561Z,101078.91
2022-10-17T17:37:42.902Z,101094.94
2022-10-17T17:42:39.301Z,101085.91
2022-10-17T17:47:35.660Z,101093.25
2022-10-17T17:52:32.146Z,101091.41
2022-10-17T17:57:30.127Z,101090.75
2022-10-17T18:02:26.483Z,101100.53
2022-10-17T18:07:24.071Z,101090.63
2022-10-17T18:12:20.428Z,101102.97
2022-10-17T18:17:16.767Z,101107.50
2022-10-17T18:22:13.091Z,101118.25
2022-10-17T18:27:09.571Z,101127.03
2022-10-17T18:32:05.946Z,101118.41
2022-10-17T18:37:02.600Z,101120.50
2022-10-17T18:41:59.106Z,101132.69
2022-10-17T18:46:58.510Z,101137.78
2022-10-17T18:51:59.439Z,101151.91
2022-10-17T18:56:56.434Z,101169.47
2022-10-17T19:01:52.936Z,101169.03
2022-10-17T19:06:49.354Z,101180.22
2022-10-17T19:11:45.849Z,101197.59
2022-10-17T19:16:47.161Z,101210.06
2022-10-17T19:21:43.984Z,101213.44
2022-10-17T19:26:41.294Z,101216.28
2022-10-17T19:31:37.854Z,101220.81
2022-10-17T19:36:35.740Z,101232.81
2022-10-17T19:41:32.262Z,101226.88
2022-10-17T19:46:30.389Z,101227.16
2022-10-17T19:51:28.504Z,101221.22
2022-10-17T19:56:25.066Z,101228.31
2022-10-17T20:01:25.219Z,101231.97
2022-10-17T20:06:22.472Z,101245.38
2022-10-17T20:11:21.381Z,101245.22
2022-10-17T20:16:23.298Z,101261.59
2022-10-17T20:21:35.626Z,101267.53
2022-10-17T20:26:38.297Z,101282.22
2022-10-17T20:31:36.295Z,101291.53
2022-10-17T20:36:36.670Z,101302.56
2022-10-17T20:41:34.045Z,101316.22
2022-10-17T20:46:36.929Z,101311.28
2022-10-17T20:51:34.901Z,101314.09
2022-10-17T20:56:32.727Z,101325.13
2022-10-17T21:01:30.821Z,101329.53
2022-10-17T21:06:27.706Z,101335.97
2022-10-17T21:11:26.893Z,101344.09
2022-10-17T21:16:24.001Z,101345.19
2022-10-17T21:21:29.550Z,101360.22
2022-10-17T21:26:26.927Z,101363.13
2022-10-17T21:31:25.636Z,101362.72
2022-10-17T21:36:23.929Z,101370.03
2022-10-17T21:41:23.133Z,101372.25
2022-10-17T21:46:20.499Z,101363.75
2022-10-17T21:51:19.008Z,101364.72
2022-10-17T21:56:18.522Z,101371.59
2022-10-17T22:01:17.890Z,101357.44
2022-10-17T22:11:35.470Z,101362.09
2022-10-17T22:16:32.510Z,101363.03
2022-10-17T22:21:29.296Z,101360.84
2022-10-17T22:26:27.505Z,101366.72
2022-10-17T22:31:24.681Z,101364.69
2022-10-17T22:36:21.240Z,101369.88
2022-10-17T22:41:17.887Z,101374.38
2022-10-17T22:46:16.643Z,101361.78
2022-10-17T22:51:13.285Z,101366.78
2022-10-17T22:56:12.950Z,101369.63
2022-10-17T23:01:14.528Z,101370.31
2022-10-17T23:06:11.037Z,101375.31
2022-10-17T23:11:08.376Z,101378.59
2022-10-17T23:16:05.270Z,101368.16
2022-10-17T23:21:01.878Z,101372.94
2022-10-17T23:26:11.125Z,101366.41
2022-10-17T23:31:13.252Z,101368.03
2022-10-17T23:36:14.033Z,101375.88
2022-10-17T23:41:11.210Z,101372.22
2022-10-17T23:46:08.210Z,101371.09
2022-10-17T23:51:04.665Z,101366.84
2022-10-17T23:56:01.017Z,101372.22
